AFL1708 UWUU-UWWW
Flight info
| Callsign | AFL1708 |
|---|---|
| Flight time | N/A |
| Altitude | 38000 |
| Route | GAPMA T759 NALUS |
| Aircraft | A320/M-SDE3FGHIRWY/LB1 |
Departure
| Time | 2026-04-24 17:00 |
|---|---|
| Airport | Ufa International Airport (UWUU) |
Arrival
| Time | N/A |
|---|---|
| Airport | Kurumoch International Airport (UWWW) |
| Time | Latitude | Longitude | Altitude | Speed | Heading |
|---|---|---|---|---|---|
| 2026-04-24 16:30 | 54.56429 | 55.88403 | 391 ft | 0 kts | 61° |
| 2026-04-24 16:47 | 54.56428 | 55.88400 | 391 ft | 1 kts | 60° |
| 2026-04-24 16:47 | 54.56419 | 55.88374 | 390 ft | 3 kts | 54° |
| 2026-04-24 16:47 | 54.56406 | 55.88346 | 390 ft | 3 kts | 46° |
| 2026-04-24 16:47 | 54.56392 | 55.88323 | 390 ft | 3 kts | 34° |
| 2026-04-24 16:48 | 54.56375 | 55.88306 | 390 ft | 3 kts | 14° |
| 2026-04-24 16:48 | 54.56358 | 55.88303 | 390 ft | 2 kts | 337° |
| 2026-04-24 16:48 | 54.56354 | 55.88306 | 390 ft | 0 kts | 331° |
| 2026-04-24 16:52 | 54.56397 | 55.88266 | 390 ft | 15 kts | 332° |
| 2026-04-24 16:52 | 54.56425 | 55.88165 | 390 ft | 8 kts | 235° |
| 2026-04-24 16:52 | 54.56397 | 55.88085 | 390 ft | 8 kts | 240° |
| 2026-04-24 16:52 | 54.56370 | 55.88003 | 389 ft | 8 kts | 240° |
| 2026-04-24 16:53 | 54.56343 | 55.87921 | 389 ft | 9 kts | 240° |
| 2026-04-24 16:53 | 54.56314 | 55.87831 | 390 ft | 8 kts | 240° |
| 2026-04-24 16:53 | 54.56286 | 55.87745 | 389 ft | 9 kts | 240° |
| 2026-04-24 16:53 | 54.56255 | 55.87652 | 389 ft | 9 kts | 240° |
| 2026-04-24 16:54 | 54.56224 | 55.87560 | 390 ft | 12 kts | 239° |
| 2026-04-24 16:54 | 54.56171 | 55.87399 | 392 ft | 17 kts | 241° |
| 2026-04-24 16:54 | 54.56111 | 55.87216 | 396 ft | 18 kts | 240° |
| 2026-04-24 16:54 | 54.56049 | 55.87027 | 402 ft | 18 kts | 240° |
| 2026-04-24 16:55 | 54.55985 | 55.86835 | 408 ft | 19 kts | 240° |
| 2026-04-24 16:55 | 54.55920 | 55.86636 | 412 ft | 19 kts | 241° |
| 2026-04-24 16:55 | 54.55867 | 55.86477 | 414 ft | 14 kts | 240° |
| 2026-04-24 16:55 | 54.55872 | 55.86329 | 412 ft | 10 kts | 334° |
| 2026-04-24 16:56 | 54.55907 | 55.86294 | 414 ft | 10 kts | 330° |
| 2026-04-24 16:56 | 54.55937 | 55.86265 | 410 ft | 13 kts | 330° |
| 2026-04-24 16:56 | 54.56038 | 55.86168 | 415 ft | 19 kts | 330° |
| 2026-04-24 16:56 | 54.56162 | 55.86047 | 410 ft | 22 kts | 331° |
| 2026-04-24 16:57 | 54.56311 | 55.85905 | 414 ft | 27 kts | 330° |
| 2026-04-24 16:57 | 54.56425 | 55.85796 | 413 ft | 29 kts | 330° |
| 2026-04-24 16:57 | 54.56610 | 55.85617 | 412 ft | 32 kts | 330° |
| 2026-04-24 16:57 | 54.56739 | 55.85492 | 413 ft | 33 kts | 331° |
| 2026-04-24 16:58 | 54.56946 | 55.85293 | 414 ft | 36 kts | 330° |
| 2026-04-24 16:58 | 54.57121 | 55.85125 | 412 ft | 22 kts | 330° |
| 2026-04-24 16:58 | 54.57216 | 55.85098 | 412 ft | 9 kts | 2° |
| 2026-04-24 16:58 | 54.57273 | 55.85082 | 414 ft | 8 kts | 335° |
| 2026-04-24 16:59 | 54.57310 | 55.85027 | 413 ft | 7 kts | 312° |
| 2026-04-24 16:59 | 54.57308 | 55.84958 | 414 ft | 8 kts | 225° |
| 2026-04-24 16:59 | 54.57259 | 55.84990 | 414 ft | 16 kts | 151° |
| 2026-04-24 17:00 | 54.56875 | 55.85360 | 413 ft | 107 kts | 150° |
| 2026-04-24 17:00 | 54.55085 | 55.87091 | 1597 ft | 155 kts | 154° |
| 2026-04-24 17:00 | 54.54159 | 55.87978 | 2612 ft | 150 kts | 157° |
| 2026-04-24 17:01 | 54.53220 | 55.91237 | 4200 ft | 188 kts | 83° |
| 2026-04-24 17:01 | 54.53885 | 55.93361 | 4713 ft | 218 kts | 52° |
| 2026-04-24 17:02 | 54.55963 | 55.97887 | 6273 ft | 256 kts | 52° |
| 2026-04-24 17:02 | 54.57071 | 56.00322 | 7385 ft | 261 kts | 52° |
| 2026-04-24 17:02 | 54.58190 | 56.02796 | 8561 ft | 264 kts | 52° |
| 2026-04-24 17:02 | 54.59372 | 56.05238 | 9738 ft | 269 kts | 42° |
| 2026-04-24 17:03 | 54.62861 | 56.07341 | 11745 ft | 275 kts | 351° |
| 2026-04-24 17:03 | 54.64664 | 56.06438 | 12731 ft | 274 kts | 327° |
| 2026-04-24 17:03 | 54.66340 | 56.04823 | 13747 ft | 278 kts | 324° |
| 2026-04-24 17:04 | 54.67865 | 56.02829 | 14636 ft | 274 kts | 304° |
| 2026-04-24 17:04 | 54.69037 | 55.96890 | 16222 ft | 272 kts | 260° |
| 2026-04-24 17:04 | 54.68495 | 55.93686 | 16577 ft | 289 kts | 240° |
| 2026-04-24 17:05 | 54.67478 | 55.90539 | 16933 ft | 310 kts | 238° |
| 2026-04-24 17:05 | 54.66401 | 55.87251 | 17667 ft | 318 kts | 238° |
| 2026-04-24 17:05 | 54.64215 | 55.80530 | 19367 ft | 323 kts | 238° |
| 2026-04-24 17:06 | 54.63110 | 55.77125 | 20201 ft | 326 kts | 238° |
| 2026-04-24 17:06 | 54.60886 | 55.70262 | 21842 ft | 330 kts | 238° |
| 2026-04-24 17:06 | 54.59763 | 55.66794 | 22636 ft | 332 kts | 238° |
| 2026-04-24 17:07 | 54.59012 | 55.64483 | 23144 ft | 334 kts | 238° |
| 2026-04-24 17:07 | 54.57482 | 55.59794 | 24025 ft | 337 kts | 238° |
| 2026-04-24 17:07 | 54.55163 | 55.52701 | 25187 ft | 344 kts | 238° |
| 2026-04-24 17:08 | 54.52790 | 55.45432 | 26320 ft | 351 kts | 237° |
| 2026-04-24 17:08 | 54.51587 | 55.41757 | 26876 ft | 354 kts | 237° |
| 2026-04-24 17:08 | 54.50368 | 55.38048 | 27421 ft | 358 kts | 237° |
| 2026-04-24 17:09 | 54.47887 | 55.30540 | 28491 ft | 365 kts | 237° |
| 2026-04-24 17:09 | 54.45349 | 55.22883 | 29548 ft | 372 kts | 237° |
| 2026-04-24 17:10 | 54.44065 | 55.19012 | 29724 ft | 372 kts | 237° |
| 2026-04-24 17:10 | 54.40433 | 55.08047 | 29742 ft | 344 kts | 237° |
| 2026-04-24 17:12 | 54.30918 | 54.79711 | 29761 ft | 342 kts | 237° |